Time;durP1;ratioP1;P1;durP2;ratioP2;P2;SDS_P1;SDS_P2;PMS_P1;PMS_P2;Temp;Humidity;BMP_temperature;BMP_pressure;BME280_temperature;BME280_humidity;BME280_pressure;Samples;Min_cycle;Max_cycle;Signal;HPM_P1;HPM_P2
2021/09/24 00:00:14;;;;;;;24.20;19.70;;;19.30;83.10;;;;;;4974551;28;20030;-62
2021/09/24 00:02:40;;;;;;;21.48;18.02;;;19.20;77.20;;;;;;4972801;28;20113;-62
2021/09/24 00:05:07;;;;;;;21.33;18.85;;;19.30;81.40;;;;;;4954495;28;20183;-62
2021/09/24 00:07:33;;;;;;;23.30;19.27;;;19.20;80.60;;;;;;4972683;28;20509;-62
2021/09/24 00:09:59;;;;;;;21.25;19.02;;;19.30;81.00;;;;;;4973865;28;20104;-62
2021/09/24 00:12:24;;;;;;;20.77;17.67;;;19.20;78.40;;;;;;4955766;28;20023;-62
2021/09/24 00:14:50;;;;;;;22.90;17.38;;;19.30;78.90;;;;;;4975057;28;20101;-62
2021/09/24 00:17:16;;;;;;;20.08;16.90;;;19.20;73.50;;;;;;4954864;28;20019;-62
2021/09/24 00:19:42;;;;;;;19.70;17.50;;;19.10;73.90;;;;;;4973944;28;20424;-62
2021/09/24 00:22:07;;;;;;;26.63;18.58;;;19.10;75.00;;;;;;4972683;28;20027;-62
2021/09/24 00:24:33;;;;;;;24.73;17.15;;;19.10;71.10;;;;;;4973743;28;20113;-62
2021/09/24 00:26:59;;;;;;;21.15;16.75;;;19.10;70.00;;;;;;4972751;28;20372;-62
2021/09/24 00:29:36;;;;;;;21.38;17.45;;;19.10;68.60;;;;;;4973889;28;20026;-62
2021/09/24 00:32:02;;;;;;;22.50;17.55;;;19.10;70.30;;;;;;4973448;28;20055;-62
2021/09/24 00:34:28;;;;;;;20.45;16.95;;;19.00;68.30;;;;;;4974080;28;20027;-62
2021/09/24 00:36:53;;;;;;;20.58;17.63;;;19.00;67.30;;;;;;4973380;28;20037;-62
2021/09/24 00:39:19;;;;;;;20.92;16.85;;;19.00;67.10;;;;;;4973102;28;20031;-62
2021/09/24 00:41:45;;;;;;;24.77;17.85;;;18.90;66.40;;;;;;4973089;28;20110;-62
2021/09/24 00:44:10;;;;;;;21.48;16.85;;;19.00;67.20;;;;;;4955344;28;20101;-62
2021/09/24 00:46:36;;;;;;;18.35;16.38;;;18.90;66.50;;;;;;4971182;28;20026;-62
2021/09/24 00:49:02;;;;;;;23.42;18.70;;;18.90;66.30;;;;;;4972589;28;20501;-62
2021/09/24 00:51:28;;;;;;;23.98;18.58;;;18.90;66.20;;;;;;4973721;28;20039;-62
2021/09/24 00:53:53;;;;;;;19.73;17.60;;;18.80;66.20;;;;;;4955631;28;20559;-62
2021/09/24 00:56:21;;;;;;;26.10;17.70;;;18.90;66.70;;;;;;4973236;28;20027;-62
2021/09/24 00:58:46;;;;;;;21.42;17.20;;;18.90;67.40;;;;;;4955784;28;20520;-62
2021/09/24 01:01:14;;;;;;;20.08;16.65;;;18.80;67.30;;;;;;4973617;28;20027;-62
2021/09/24 01:03:40;;;;;;;21.63;19.00;;;18.80;67.50;;;;;;4959530;28;20082;-62
2021/09/24 01:06:06;;;;;;;23.20;20.25;;;18.80;67.60;;;;;;4959979;28;20106;-62
2021/09/24 01:08:32;;;;;;;28.10;22.63;;;18.80;67.30;;;;;;4955983;28;20046;-62
2021/09/24 01:10:58;;;;;;;28.17;22.02;;;18.70;66.60;;;;;;4940764;29;20381;-62
2021/09/24 01:13:24;;;;;;;26.27;22.13;;;18.80;67.00;;;;;;4951126;28;20055;-62
2021/09/24 01:15:50;;;;;;;27.70;22.63;;;18.80;67.30;;;;;;4976373;28;20074;-61
2021/09/24 01:18:16;;;;;;;30.80;24.33;;;18.70;66.80;;;;;;4976725;28;20102;-61
2021/09/24 01:20:42;;;;;;;28.63;24.35;;;18.70;67.60;;;;;;4977103;28;20022;-62
2021/09/24 01:23:07;;;;;;;35.83;27.02;;;18.80;69.20;;;;;;4976763;28;20034;-62
2021/09/24 01:25:33;;;;;;;31.08;26.08;;;18.80;69.60;;;;;;4977069;28;20465;-62
2021/09/24 01:27:59;;;;;;;39.13;28.48;;;18.80;70.70;;;;;;4976389;28;20031;-62
2021/09/24 01:30:25;;;;;;;34.30;28.17;;;18.70;70.10;;;;;;4977387;28;20499;-62
2021/09/24 01:32:52;;;;;;;38.05;30.00;;;18.70;68.30;;;;;;4976181;28;20027;-62
2021/09/24 01:35:18;;;;;;;39.72;28.70;;;18.70;68.60;;;;;;4976789;28;20039;-61
2021/09/24 01:37:44;;;;;;;31.13;26.35;;;18.80;69.50;;;;;;4975360;28;20027;-62
2021/09/24 01:40:20;;;;;;;34.10;27.92;;;18.80;70.10;;;;;;4976810;28;20034;-62
2021/09/24 01:42:50;;;;;;;35.17;27.23;;;18.80;70.20;;;;;;4973434;28;20118;-62
2021/09/24 01:45:16;;;;;;;32.45;27.67;;;18.80;70.60;;;;;;4975977;28;20511;-62
2021/09/24 01:47:42;;;;;;;31.90;27.17;;;18.70;70.10;;;;;;4972622;28;20047;-61
2021/09/24 01:50:09;;;;;;;39.90;28.23;;;18.70;70.50;;;;;;4957508;29;20034;-62
2021/09/24 01:52:35;;;;;;;34.28;28.17;;;18.70;69.80;;;;;;4957061;28;20105;-62
2021/09/24 01:55:01;;;;;;;33.83;28.08;;;18.70;69.10;;;;;;4957204;29;20112;-62
2021/09/24 01:57:26;;;;;;;38.78;30.05;;;18.70;68.70;;;;;;4955687;28;20067;-62
2021/09/24 01:59:52;;;;;;;38.30;30.00;;;18.60;68.20;;;;;;4957034;29;20502;-62
2021/09/24 02:02:18;;;;;;;37.58;30.50;;;18.60;68.10;;;;;;4952577;28;20470;-62
2021/09/24 02:04:43;;;;;;;31.73;27.75;;;18.60;67.50;;;;;;4956612;29;20091;-62
2021/09/24 02:07:09;;;;;;;32.45;26.75;;;18.60;68.10;;;;;;4957369;29;20058;-62
2021/09/24 02:09:35;;;;;;;28.40;25.08;;;18.60;68.20;;;;;;4956380;28;20442;-63
2021/09/24 02:12:01;;;;;;;30.38;24.52;;;18.60;68.20;;;;;;4957223;29;20031;-62
2021/09/24 02:14:26;;;;;;;31.05;24.98;;;18.60;69.00;;;;;;4954081;28;20039;-62
2021/09/24 02:16:52;;;;;;;30.75;24.48;;;18.50;69.00;;;;;;4956094;28;20035;-62
2021/09/24 02:19:17;;;;;;;30.00;24.10;;;18.50;69.20;;;;;;4956032;28;20039;-62
2021/09/24 02:21:43;;;;;;;25.60;21.63;;;18.50;68.90;;;;;;4956739;29;20086;-61
2021/09/24 02:24:09;;;;;;;28.02;21.05;;;18.40;68.50;;;;;;4956232;28;20035;-62
2021/09/24 02:26:34;;;;;;;27.67;20.30;;;18.50;69.70;;;;;;4956596;29;20118;-62
2021/09/24 02:29:00;;;;;;;24.42;19.35;;;18.40;69.50;;;;;;4937584;29;20063;-62
2021/09/24 02:31:26;;;;;;;25.42;19.48;;;18.40;70.30;;;;;;4956856;29;20042;-62
2021/09/24 02:33:51;;;;;;;27.73;19.27;;;18.40;70.70;;;;;;4955959;28;20031;-62
2021/09/24 02:36:17;;;;;;;23.02;19.20;;;18.40;71.00;;;;;;4956474;29;20098;-62
2021/09/24 02:38:43;;;;;;;27.60;19.20;;;18.40;71.00;;;;;;4956091;28;20047;-61
2021/09/24 02:41:08;;;;;;;24.77;18.70;;;18.30;70.80;;;;;;4955651;28;20043;-62
2021/09/24 02:43:34;;;;;;;23.00;18.00;;;18.40;72.20;;;;;;4955019;28;20105;-62
2021/09/24 02:46:00;;;;;;;24.48;19.40;;;18.30;72.30;;;;;;4956451;29;20032;-62
2021/09/24 02:48:26;;;;;;;23.00;18.67;;;18.30;73.40;;;;;;4964524;28;20050;-62
2021/09/24 02:50:51;;;;;;;21.75;18.60;;;18.30;73.40;;;;;;4975297;28;20074;-62
2021/09/24 02:53:17;;;;;;;22.42;18.60;;;18.30;73.30;;;;;;4954500;28;20039;-62
2021/09/24 02:55:43;;;;;;;24.52;17.95;;;18.30;73.20;;;;;;4958236;28;20429;-62
2021/09/24 02:58:08;;;;;;;21.27;18.17;;;18.30;72.90;;;;;;4957384;28;20556;-62
2021/09/24 03:00:34;;;;;;;22.10;18.33;;;18.30;73.40;;;;;;4975502;28;20039;-62
2021/09/24 03:02:59;;;;;;;20.00;17.45;;;18.20;73.30;;;;;;4974916;28;20102;-61
2021/09/24 03:05:25;;;;;;;22.73;17.75;;;18.30;74.80;;;;;;4975090;28;20485;-62
2021/09/24 03:07:51;;;;;;;20.23;17.70;;;18.30;74.90;;;;;;4974520;28;20027;-62
2021/09/24 03:10:17;;;;;;;26.20;18.08;;;18.20;75.70;;;;;;4974865;28;20089;-62
2021/09/24 03:12:44;;;;;;;24.17;18.23;;;18.20;75.90;;;;;;4973589;28;20073;-62
2021/09/24 03:15:11;;;;;;;19.83;17.70;;;18.20;76.30;;;;;;4974845;28;20030;-62
2021/09/24 03:17:37;;;;;;;22.42;19.33;;;18.20;76.30;;;;;;4974244;28;20038;-62
2021/09/24 03:20:05;;;;;;;21.73;18.42;;;18.10;76.00;;;;;;4974491;28;20393;-62
2021/09/24 03:22:31;;;;;;;23.73;17.52;;;18.20;75.80;;;;;;4975070;28;20027;-62
2021/09/24 03:24:56;;;;;;;23.77;18.73;;;18.20;76.00;;;;;;4974131;28;20497;-62
2021/09/24 03:27:22;;;;;;;21.13;18.00;;;18.20;76.30;;;;;;4973485;28;20041;-61
2021/09/24 03:29:48;;;;;;;22.58;17.95;;;18.20;76.50;;;;;;4973881;28;20041;-62
2021/09/24 03:32:18;;;;;;;22.75;19.40;;;18.20;76.60;;;;;;4974715;28;20026;-62
2021/09/24 03:34:45;;;;;;;20.70;17.35;;;18.20;76.80;;;;;;4974108;28;20492;-62
2021/09/24 03:37:10;;;;;;;22.95;18.70;;;18.20;76.90;;;;;;4974556;28;20492;-62
2021/09/24 03:39:36;;;;;;;23.65;19.55;;;18.20;77.30;;;;;;4973837;28;20058;-62
2021/09/24 03:42:02;;;;;;;21.80;18.33;;;18.20;77.30;;;;;;4971950;28;20019;-63
2021/09/24 03:44:27;;;;;;;22.95;17.65;;;18.20;78.10;;;;;;4973893;28;20043;-62
2021/09/24 03:46:53;;;;;;;20.83;17.17;;;18.20;77.70;;;;;;4974667;28;20015;-62
2021/09/24 03:49:18;;;;;;;22.27;17.75;;;18.20;78.00;;;;;;4957340;28;20086;-60
2021/09/24 03:51:44;;;;;;;21.35;17.98;;;18.30;78.40;;;;;;4954980;29;20032;-61
2021/09/24 03:54:10;;;;;;;21.15;17.80;;;18.20;78.10;;;;;;4954609;28;20031;-61
2021/09/24 03:56:35;;;;;;;22.25;17.75;;;18.20;78.40;;;;;;4954978;29;20358;-61
2021/09/24 03:59:01;;;;;;;24.13;18.30;;;18.20;78.20;;;;;;4937197;29;20145;-61
2021/09/24 04:01:26;;;;;;;25.15;19.52;;;18.20;78.40;;;;;;4955642;29;20032;-62
2021/09/24 04:03:52;;;;;;;22.48;17.40;;;18.10;78.40;;;;;;4954535;28;20059;-62
2021/09/24 04:06:17;;;;;;;21.40;17.17;;;18.10;78.30;;;;;;4953610;29;20103;-62
2021/09/24 04:08:43;;;;;;;21.60;18.95;;;18.20;79.10;;;;;;4953540;28;20094;-62
2021/09/24 04:11:08;;;;;;;26.25;19.20;;;18.10;79.20;;;;;;4953631;28;20031;-62
2021/09/24 04:13:34;;;;;;;22.58;18.73;;;18.10;80.00;;;;;;4936911;29;20473;-62
2021/09/24 04:16:00;;;;;;;20.27;18.17;;;18.10;79.80;;;;;;4954934;29;20035;-62
2021/09/24 04:18:25;;;;;;;24.45;20.00;;;18.10;80.30;;;;;;4953824;28;20540;-62
2021/09/24 04:20:51;;;;;;;23.08;19.67;;;18.10;80.30;;;;;;4954806;29;20060;-62
2021/09/24 04:23:16;;;;;;;25.90;20.90;;;18.00;81.40;;;;;;4952424;28;20046;-62
2021/09/24 04:25:43;;;;;;;27.23;21.70;;;18.00;81.30;;;;;;4936643;29;20478;-62
2021/09/24 04:28:09;;;;;;;29.05;22.95;;;18.00;81.60;;;;;;4936061;28;20023;-62
2021/09/24 04:30:34;;;;;;;26.38;22.35;;;18.00;81.30;;;;;;4953935;29;20042;-62
2021/09/24 04:33:00;;;;;;;26.10;22.50;;;18.00;82.30;;;;;;4953894;28;20031;-61
2021/09/24 04:35:26;;;;;;;31.20;24.30;;;18.00;81.90;;;;;;4937061;29;20034;-61
2021/09/24 04:37:52;;;;;;;25.25;22.50;;;17.90;79.20;;;;;;4956347;28;20031;-61
2021/09/24 04:40:18;;;;;;;29.17;22.23;;;18.00;80.00;;;;;;4956410;28;20059;-61
2021/09/24 04:42:43;;;;;;;30.27;23.00;;;18.00;80.40;;;;;;4958378;29;20515;-62
2021/09/24 04:45:09;;;;;;;28.98;23.13;;;18.00;80.90;;;;;;4957571;28;20065;-61
2021/09/24 04:47:36;;;;;;;29.77;23.17;;;17.90;81.40;;;;;;4960558;28;20024;-61
2021/09/24 04:50:05;;;;;;;27.02;23.25;;;17.90;80.90;;;;;;4977233;28;20133;-61
2021/09/24 04:52:31;;;;;;;28.42;23.35;;;17.90;80.90;;;;;;4960332;28;20026;-62
2021/09/24 04:54:56;;;;;;;26.85;22.58;;;17.80;80.10;;;;;;4959712;28;20081;-61
2021/09/24 04:57:22;;;;;;;24.92;20.75;;;17.80;78.60;;;;;;4976890;28;20034;-62
2021/09/24 04:59:48;;;;;;;28.25;24.05;;;17.80;78.20;;;;;;4959931;28;20404;-62
2021/09/24 05:02:14;;;;;;;26.27;21.95;;;17.80;77.10;;;;;;4976697;28;20093;-61
2021/09/24 05:04:44;;;;;;;25.38;22.20;;;17.80;76.90;;;;;;4977602;28;20043;-61
2021/09/24 05:07:10;;;;;;;27.33;22.67;;;17.80;77.70;;;;;;4976273;28;20027;-61
2021/09/24 05:09:35;;;;;;;26.73;22.33;;;17.70;77.60;;;;;;4976851;28;20469;-61
2021/09/24 05:12:01;;;;;;;25.40;21.05;;;17.70;77.90;;;;;;4976755;28;20034;-62
2021/09/24 05:14:27;;;;;;;28.42;23.88;;;17.60;78.00;;;;;;4974573;28;20473;-63
2021/09/24 05:16:53;;;;;;;24.50;21.27;;;17.60;77.80;;;;;;4959619;28;20035;-62
2021/09/24 05:19:18;;;;;;;27.40;22.42;;;17.60;78.10;;;;;;4976223;28;20121;-62
2021/09/24 05:21:44;;;;;;;26.02;23.20;;;17.60;77.80;;;;;;4977062;28;20060;-62
2021/09/24 05:24:10;;;;;;;26.98;21.85;;;17.60;78.00;;;;;;4976567;28;20031;-62
2021/09/24 05:26:35;;;;;;;27.58;22.63;;;17.50;77.80;;;;;;4977169;28;20023;-62
2021/09/24 05:29:01;;;;;;;30.95;22.52;;;17.50;77.90;;;;;;4958715;28;20030;-62
2021/09/24 05:31:27;;;;;;;29.02;23.77;;;17.50;78.90;;;;;;4959497;28;20030;-62
2021/09/24 05:33:52;;;;;;;29.63;23.92;;;17.50;78.60;;;;;;4976121;28;20097;-62
2021/09/24 05:36:18;;;;;;;31.95;22.90;;;17.50;78.50;;;;;;4959493;28;20120;-62
2021/09/24 05:38:44;;;;;;;26.73;22.45;;;17.50;78.40;;;;;;4975687;28;20038;-62
2021/09/24 05:41:10;;;;;;;27.10;22.35;;;17.50;78.30;;;;;;4976697;28;20030;-61
2021/09/24 05:43:37;;;;;;;26.30;23.35;;;17.50;78.80;;;;;;4975831;28;20496;-62
2021/09/24 05:46:03;;;;;;;27.58;23.73;;;17.60;78.90;;;;;;4958989;28;20384;-62
2021/09/24 05:48:29;;;;;;;29.38;23.55;;;17.60;78.20;;;;;;4974463;28;20039;-62
2021/09/24 05:50:56;;;;;;;28.83;23.48;;;17.60;78.00;;;;;;4976302;28;20441;-61
2021/09/24 05:53:22;;;;;;;33.00;22.63;;;17.60;78.30;;;;;;4975719;28;20029;-61
2021/09/24 05:55:48;;;;;;;31.77;24.25;;;17.60;77.90;;;;;;4958738;28;20089;-61
2021/09/24 05:58:13;;;;;;;32.42;23.55;;;17.60;78.70;;;;;;4976520;28;20083;-61
2021/09/24 06:00:39;;;;;;;31.85;25.20;;;17.60;79.70;;;;;;4975485;28;20452;-62
2021/09/24 06:03:05;;;;;;;27.98;23.80;;;17.60;79.30;;;;;;4960098;28;20050;-62
2021/09/24 06:05:30;;;;;;;30.17;24.55;;;17.60;79.10;;;;;;4975781;28;20042;-63
2021/09/24 06:07:56;;;;;;;29.45;23.00;;;17.70;78.70;;;;;;4975148;28;20061;-62
2021/09/24 06:10:21;;;;;;;30.20;24.63;;;17.80;78.10;;;;;;4975636;28;20031;-62
2021/09/24 06:12:48;;;;;;;30.85;25.33;;;17.80;78.00;;;;;;4976186;28;20026;-62
2021/09/24 06:15:16;;;;;;;29.00;24.52;;;17.80;77.50;;;;;;4974689;28;20081;-62
2021/09/24 06:17:42;;;;;;;29.23;25.77;;;17.70;78.10;;;;;;4976130;28;20384;-62
2021/09/24 06:20:09;;;;;;;34.15;25.30;;;17.80;78.20;;;;;;4975016;28;20121;-62
2021/09/24 06:22:34;;;;;;;36.78;27.13;;;17.80;77.30;;;;;;4975963;28;20034;-62
2021/09/24 06:25:00;;;;;;;31.85;25.67;;;17.80;77.50;;;;;;4954040;29;20027;-62
2021/09/24 06:27:26;;;;;;;28.38;24.13;;;17.80;78.10;;;;;;4956759;29;20150;-62
2021/09/24 06:29:56;;;;;;;31.27;25.30;;;17.80;78.50;;;;;;4965272;28;20027;-63
2021/09/24 06:32:22;;;;;;;32.05;25.17;;;17.80;78.30;;;;;;4976028;28;20102;-62
2021/09/24 06:34:48;;;;;;;32.20;26.20;;;17.80;78.40;;;;;;4975091;28;20055;-63
2021/09/24 06:37:15;;;;;;;36.97;26.45;;;17.90;78.10;;;;;;4974403;28;20081;-62
2021/09/24 06:39:41;;;;;;;35.30;26.15;;;18.00;77.50;;;;;;4973637;28;20038;-62
2021/09/24 06:42:07;;;;;;;32.75;26.75;;;18.00;77.30;;;;;;4975483;28;20046;-61
2021/09/24 06:44:33;;;;;;;37.20;28.27;;;18.00;77.20;;;;;;4974742;28;20031;-62
2021/09/24 06:46:59;;;;;;;36.33;28.58;;;18.10;76.60;;;;;;4975688;28;20118;-61
2021/09/24 06:49:25;;;;;;;35.50;27.92;;;18.10;76.40;;;;;;4957330;28;20123;-61
2021/09/24 06:51:52;;;;;;;33.60;27.52;;;18.10;76.10;;;;;;4956379;29;20064;-61
2021/09/24 06:54:18;;;;;;;32.47;27.65;;;18.10;76.00;;;;;;4938010;29;20057;-61
2021/09/24 06:56:44;;;;;;;35.38;28.17;;;18.10;76.30;;;;;;4945254;29;20032;-61
2021/09/24 06:59:10;;;;;;;32.75;27.92;;;18.10;76.30;;;;;;4938278;28;20050;-62
2021/09/24 07:01:36;;;;;;;35.25;28.10;;;18.10;75.70;;;;;;4955227;28;20034;-61
2021/09/24 07:04:02;;;;;;;35.90;28.13;;;18.10;75.50;;;;;;4937805;28;20104;-62
2021/09/24 07:06:28;;;;;;;35.35;29.33;;;18.10;75.50;;;;;;4955873;29;20377;-61
2021/09/24 07:08:53;;;;;;;37.38;28.73;;;18.10;75.40;;;;;;4937950;28;20110;-62
2021/09/24 07:11:19;;;;;;;38.47;29.88;;;18.20;75.20;;;;;;4954003;28;20492;-62
2021/09/24 07:13:45;;;;;;;37.30;29.63;;;18.20;74.00;;;;;;4936289;28;20177;-62
2021/09/24 07:16:10;;;;;;;35.25;29.77;;;18.20;74.10;;;;;;4954508;28;20027;-62
2021/09/24 07:18:36;;;;;;;42.85;30.80;;;18.30;74.20;;;;;;4955147;29;20027;-62
2021/09/24 07:21:02;;;;;;;36.05;30.52;;;18.30;74.20;;;;;;4937929;28;20031;-62
2021/09/24 07:23:28;;;;;;;41.92;31.98;;;18.30;75.00;;;;;;4970009;28;20039;-61
2021/09/24 07:25:54;;;;;;;39.88;30.48;;;18.30;74.00;;;;;;4937814;29;20038;-62
2021/09/24 07:28:20;;;;;;;38.50;29.85;;;18.40;73.60;;;;;;4935934;29;20028;-62
2021/09/24 07:30:46;;;;;;;37.40;28.90;;;18.40;73.20;;;;;;4954188;28;20161;-62
2021/09/24 07:33:12;;;;;;;39.50;28.00;;;18.40;73.60;;;;;;4953562;28;20110;-62
2021/09/24 07:35:39;;;;;;;31.65;27.17;;;18.50;72.80;;;;;;4954596;28;20117;-62
2021/09/24 07:38:05;;;;;;;32.47;26.48;;;18.50;72.60;;;;;;4937513;29;20028;-61
2021/09/24 07:40:31;;;;;;;32.30;27.02;;;18.50;72.00;;;;;;4954678;28;20063;-62
2021/09/24 07:42:56;;;;;;;31.45;26.83;;;18.50;71.50;;;;;;4955017;29;20484;-61
2021/09/24 07:45:23;;;;;;;30.58;24.23;;;18.50;71.90;;;;;;4954392;28;20035;-62
2021/09/24 07:47:50;;;;;;;33.25;25.50;;;18.40;70.90;;;;;;4954503;29;20134;-60
2021/09/24 07:50:16;;;;;;;29.42;24.73;;;18.50;71.30;;;;;;4954343;28;20090;-61
2021/09/24 07:52:42;;;;;;;28.42;25.25;;;18.60;71.00;;;;;;4954806;28;20450;-61
2021/09/24 07:55:08;;;;;;;33.67;25.42;;;18.60;70.40;;;;;;4954317;28;20078;-61
2021/09/24 07:57:35;;;;;;;34.72;27.48;;;18.70;70.20;;;;;;4954656;28;20058;-61
2021/09/24 08:00:02;;;;;;;34.58;27.92;;;18.80;69.60;;;;;;4954091;28;20468;-61
2021/09/24 08:02:28;;;;;;;38.03;31.05;;;18.70;69.80;;;;;;4953164;29;20055;-61
2021/09/24 08:04:53;;;;;;;35.17;30.48;;;18.80;70.00;;;;;;4953352;28;20059;-61
2021/09/24 08:07:19;;;;;;;32.67;28.35;;;18.90;69.60;;;;;;4935584;29;20031;-61
2021/09/24 08:09:45;;;;;;;33.88;29.60;;;18.90;69.90;;;;;;4939255;28;20428;-61
2021/09/24 08:12:10;;;;;;;32.88;28.05;;;18.90;69.00;;;;;;4953941;28;20122;-61
2021/09/24 08:14:36;;;;;;;31.70;27.50;;;19.00;67.90;;;;;;4954180;28;20034;-61
2021/09/24 08:17:02;;;;;;;34.03;26.60;;;19.00;67.70;;;;;;4954511;28;20397;-61
2021/09/24 08:19:28;;;;;;;35.42;29.25;;;19.00;67.60;;;;;;4952477;28;20378;-61
2021/09/24 08:21:54;;;;;;;36.70;30.08;;;19.10;68.00;;;;;;4954524;29;20030;-61
2021/09/24 08:24:19;;;;;;;35.53;29.92;;;19.20;67.40;;;;;;4952078;28;20031;-62
2021/09/24 08:26:45;;;;;;;31.10;27.38;;;19.20;68.10;;;;;;4953072;29;20105;-61
2021/09/24 08:29:10;;;;;;;31.63;25.58;;;19.20;67.30;;;;;;4952652;28;20062;-61
2021/09/24 08:31:36;;;;;;;30.38;25.92;;;19.30;66.50;;;;;;4947218;28;20035;-61
2021/09/24 08:34:02;;;;;;;35.65;27.75;;;19.30;66.70;;;;;;4951574;28;20434;-61
2021/09/24 08:36:28;;;;;;;31.10;26.85;;;19.30;66.50;;;;;;4951702;28;20039;-61
2021/09/24 08:38:55;;;;;;;32.40;25.75;;;19.30;66.30;;;;;;4953731;29;20162;-61
2021/09/24 08:41:25;;;;;;;31.25;25.98;;;19.40;64.90;;;;;;4952337;28;20038;-61
2021/09/24 08:43:51;;;;;;;34.47;27.65;;;19.40;65.70;;;;;;4953806;29;20042;-61
2021/09/24 08:46:17;;;;;;;33.95;26.90;;;19.50;65.60;;;;;;4951958;28;20409;-61
2021/09/24 08:48:44;;;;;;;30.83;26.50;;;19.60;65.20;;;;;;4965503;28;20091;-61
2021/09/24 08:51:10;;;;;;;31.17;27.83;;;19.60;64.70;;;;;;4972135;28;20062;-61
2021/09/24 08:53:36;;;;;;;35.60;27.23;;;19.60;64.10;;;;;;4973556;28;20121;-61
2021/09/24 08:56:03;;;;;;;31.90;27.25;;;19.70;64.00;;;;;;4967706;28;20027;-61
2021/09/24 08:58:29;;;;;;;32.35;25.38;;;19.70;63.10;;;;;;4955853;28;20113;-62
2021/09/24 09:00:55;;;;;;;33.88;28.42;;;19.80;63.30;;;;;;4972784;28;20155;-61
2021/09/24 09:03:21;;;;;;;34.05;27.27;;;19.80;62.60;;;;;;4972256;28;20023;-61
2021/09/24 09:05:50;;;;;;;34.80;27.42;;;19.90;62.10;;;;;;4973232;28;20069;-61
2021/09/24 09:08:28;;;;;;;30.48;26.38;;;19.80;61.60;;;;;;4973638;28;20103;-61
2021/09/24 09:10:59;;;;;;;32.22;26.02;;;19.90;63.10;;;;;;4971778;28;20367;-61
2021/09/24 09:13:38;;;;;;;34.25;26.58;;;19.90;62.10;;;;;;4972945;28;20417;-63
2021/09/24 09:16:06;;;;;;;31.83;25.67;;;20.00;61.40;;;;;;4971745;28;20031;-63
2021/09/24 09:18:37;;;;;;;33.75;27.42;;;20.10;61.60;;;;;;4971659;28;20551;-61
2021/09/24 09:21:05;;;;;;;31.70;26.33;;;20.20;60.90;;;;;;4972759;28;20376;-61
2021/09/24 09:23:33;;;;;;;31.98;26.15;;;20.30;60.70;;;;;;4957930;28;20031;-61
2021/09/24 09:26:03;;;;;;;29.92;26.75;;;20.30;60.30;;;;;;4975796;28;20065;-61
2021/09/24 09:28:37;;;;;;;31.08;26.55;;;20.40;60.20;;;;;;4977174;28;20023;-62
2021/09/24 09:31:25;;;;;;;32.10;26.77;;;20.40;59.70;;;;;;4976417;28;20031;-62
2021/09/24 09:33:56;;;;;;;31.95;26.58;;;20.50;58.80;;;;;;4955498;28;20034;-62
2021/09/24 09:36:30;;;;;;;27.30;24.42;;;20.60;58.80;;;;;;4967938;28;20096;-62
2021/09/24 09:38:56;;;;;;;30.40;26.70;;;20.70;56.40;;;;;;4977054;28;20066;-62
2021/09/24 09:41:24;;;;;;;35.28;27.48;;;20.70;55.70;;;;;;4975042;28;20027;-62
2021/09/24 09:43:53;;;;;;;29.98;25.25;;;20.70;56.90;;;;;;4959005;28;20033;-62
2021/09/24 09:46:22;;;;;;;30.85;25.00;;;20.80;56.80;;;;;;4975403;28;20035;-61
2021/09/24 09:49:08;;;;;;;32.13;25.20;;;20.80;56.60;;;;;;4976108;28;20051;-61
2021/09/24 09:51:37;;;;;;;28.67;24.48;;;21.00;55.70;;;;;;4976143;28;20081;-61
2021/09/24 09:54:03;;;;;;;28.55;23.27;;;21.10;54.80;;;;;;4959656;28;20035;-61
2021/09/24 09:56:39;;;;;;;26.25;23.00;;;21.20;54.60;;;;;;4975670;28;20123;-61
2021/09/24 09:59:28;;;;;;;24.98;20.50;;;21.20;53.50;;;;;;4976224;28;20039;-62
2021/09/24 10:02:18;;;;;;;26.30;23.48;;;21.30;52.20;;;;;;4975763;28;20085;-61
2021/09/24 10:04:46;;;;;;;23.45;20.95;;;21.20;52.40;;;;;;4971056;28;20045;-62
2021/09/24 10:07:12;;;;;;;24.50;20.65;;;21.30;50.10;;;;;;4975755;28;20050;-61
2021/09/24 10:09:38;;;;;;;25.23;20.80;;;21.50;51.60;;;;;;4976357;28;20058;-61
2021/09/24 10:12:19;;;;;;;24.55;19.98;;;21.50;51.70;;;;;;4974223;28;20063;-61
2021/09/24 10:14:45;;;;;;;26.98;22.55;;;21.70;49.70;;;;;;4976279;28;20398;-61
2021/09/24 10:17:11;;;;;;;22.67;18.13;;;21.70;51.00;;;;;;4958091;28;20038;-62
2021/09/24 10:19:36;;;;;;;23.45;19.67;;;21.70;50.70;;;;;;4975791;28;20031;-62
2021/09/24 10:22:02;;;;;;;22.45;20.05;;;21.90;50.30;;;;;;4975145;28;20081;-61
2021/09/24 10:24:28;;;;;;;23.80;20.90;;;21.90;49.90;;;;;;4974883;28;20081;-61
2021/09/24 10:27:03;;;;;;;28.05;20.83;;;22.00;49.40;;;;;;4969074;28;20031;-61
2021/09/24 10:29:33;;;;;;;25.10;22.45;;;22.00;49.10;;;;;;4975800;28;20497;-62
2021/09/24 10:32:31;;;;;;;26.95;22.10;;;22.10;48.80;;;;;;4975096;28;20027;-62
2021/09/24 10:35:02;;;;;;;25.67;22.00;;;22.30;47.10;;;;;;4921988;28;20057;-62
2021/09/24 10:37:31;;;;;;;26.02;22.40;;;22.40;47.80;;;;;;4975042;28;20044;-62
2021/09/24 10:39:59;;;;;;;27.15;23.85;;;22.40;48.20;;;;;;4975571;28;20059;-62
2021/09/24 10:42:28;;;;;;;27.15;24.35;;;22.40;46.10;;;;;;4973649;28;20026;-61
2021/09/24 10:45:31;;;;;;;27.40;23.50;;;22.30;47.40;;;;;;4975194;28;20393;-62
2021/09/24 10:48:01;;;;;;;35.63;26.15;;;22.30;46.90;;;;;;4954660;29;20134;-61
2021/09/24 10:50:33;;;;;;;32.15;28.58;;;22.50;46.60;;;;;;4954353;28;20035;-62
2021/09/24 10:53:08;;;;;;;27.08;23.83;;;22.70;46.20;;;;;;4937024;29;20386;-61
2021/09/24 10:55:40;;;;;;;26.55;23.65;;;22.80;50.00;;;;;;4938000;28;20521;-62
2021/09/24 10:58:06;;;;;;;29.77;24.40;;;22.70;50.00;;;;;;4954474;28;20035;-62
2021/09/24 11:00:33;;;;;;;27.10;22.38;;;22.90;48.90;;;;;;4955438;28;20445;-62
2021/09/24 11:03:09;;;;;;;27.30;21.95;;;22.90;47.50;;;;;;4955851;29;20135;-62
2021/09/24 11:05:56;;;;;;;27.02;19.77;;;23.10;45.20;;;;;;4955142;28;20061;-62
2021/09/24 11:08:33;;;;;;;25.02;20.60;;;23.10;43.90;;;;;;4956394;28;20027;-62
2021/09/24 11:11:03;;;;;;;24.10;21.63;;;23.10;43.80;;;;;;4955020;28;20031;-62
2021/09/24 11:13:30;;;;;;;25.02;20.67;;;23.00;44.30;;;;;;4956237;29;20051;-62
2021/09/24 11:16:01;;;;;;;22.60;18.98;;;23.10;44.30;;;;;;4955212;28;20035;-63
2021/09/24 11:18:49;;;;;;;20.83;17.05;;;23.20;43.10;;;;;;4954386;29;20040;-62
2021/09/24 11:21:17;;;;;;;23.17;17.85;;;23.30;42.60;;;;;;4955187;28;20413;-62
2021/09/24 11:23:43;;;;;;;22.17;18.95;;;23.40;43.30;;;;;;4955814;28;20027;-62
2021/09/24 11:26:21;;;;;;;18.55;15.27;;;23.60;42.90;;;;;;4955168;28;20027;-62
2021/09/24 11:29:02;;;;;;;19.83;14.25;;;23.50;42.40;;;;;;4956237;28;20031;-62
2021/09/24 11:31:53;;;;;;;19.10;16.30;;;23.60;40.90;;;;;;4955141;28;20102;-62
2021/09/24 11:34:40;;;;;;;22.75;16.13;;;23.80;39.20;;;;;;4955712;28;20027;-63
2021/09/24 11:37:27;;;;;;;18.80;16.85;;;24.00;39.10;;;;;;4955087;28;20122;-62
2021/09/24 11:40:00;;;;;;;18.02;16.20;;;24.20;39.80;;;;;;4954102;28;20090;-62
2021/09/24 11:42:27;;;;;;;18.05;16.20;;;24.10;39.90;;;;;;4953631;28;20497;-62
2021/09/24 11:44:55;;;;;;;14.23;12.70;;;24.20;41.90;;;;;;4953933;29;20031;-61
2021/09/24 11:47:24;;;;;;;16.90;13.20;;;24.50;50.20;;;;;;4954562;28;20023;-60
2021/09/24 11:50:04;;;;;;;16.35;14.63;;;24.40;55.30;;;;;;4974674;28;20097;-62
2021/09/24 11:53:11;;;;;;;19.13;16.02;;;;;;;;;;4973649;28;20037;-62
2021/09/24 11:55:44;;;;;;;18.15;16.45;;;24.30;55.80;;;;;;4933450;29;20031;-61
2021/09/24 11:58:24;;;;;;;17.23;15.63;;;24.20;37.40;;;;;;4917314;29;20421;-61
2021/09/24 12:00:52;;;;;;;16.30;14.70;;;24.90;35.10;;;;;;4958181;28;20039;-61
2021/09/24 12:03:20;;;;;;;16.38;14.70;;;25.20;41.40;;;;;;4974102;28;20042;-62
2021/09/24 12:06:05;;;;;;;14.18;12.75;;;25.00;37.40;;;;;;4972700;28;20756;-62
2021/09/24 12:08:34;;;;;;;17.73;15.05;;;25.30;41.10;;;;;;4974325;28;20033;-61
2021/09/24 12:10:59;;;;;;;14.10;12.63;;;25.20;35.10;;;;;;4972918;28;20106;-62
2021/09/24 12:13:34;;;;;;;15.38;12.13;;;;;;;;;;4973908;28;20433;-61
2021/09/24 12:16:01;;;;;;;12.48;11.18;;;26.30;49.50;;;;;;4973003;28;20543;-61
2021/09/24 12:18:47;;;;;;;13.10;11.80;;;29.30;55.90;;;;;;4972294;28;20035;-61
2021/09/24 12:21:14;;;;;;;15.10;13.73;;;;;;;;;;4956560;28;20049;-62
2021/09/24 12:23:41;;;;;;;14.95;13.45;;;34.60;43.50;;;;;;4955803;28;20031;-61
2021/09/24 12:26:08;;;;;;;15.00;13.57;;;36.10;19.00;;;;;;4972338;28;20034;-62
2021/09/24 12:28:35;;;;;;;15.52;13.55;;;37.00;25.90;;;;;;4972668;28;20031;-62
2021/09/24 12:31:05;;;;;;;16.88;15.27;;;38.30;17.00;;;;;;4972536;28;20105;-62